Time;durP1;ratioP1;P1;durP2;ratioP2;P2;SDS_P1;SDS_P2;PMS_P1;PMS_P2;Temp;Humidity;BMP_temperature;BMP_pressure;BME280_temperature;BME280_humidity;BME280_pressure;Samples;Min_cycle;Max_cycle;Signal;HPM_P1;HPM_P2
2021/12/18 00:00:16;;;;;;;4.20;3.20;;;-0.50;99.90;-1.40;98037.00;;;;5077760;28;20529;-85
2021/12/18 00:03:06;;;;;;;6.20;4.20;;;-0.50;99.90;-1.40;98048.00;;;;5077031;28;20431;-85
2021/12/18 00:05:55;;;;;;;5.57;3.47;;;-0.70;99.90;-1.40;98064.00;;;;5071358;28;20429;-85
2021/12/18 00:08:45;;;;;;;5.43;4.27;;;-0.70;99.90;-1.40;98055.00;;;;5079161;28;20439;-86
2021/12/18 00:11:34;;;;;;;4.43;3.97;;;-0.70;99.90;-1.20;98065.00;;;;5062011;28;21006;-86
2021/12/18 00:14:23;;;;;;;4.03;3.73;;;-0.70;99.90;-1.20;98072.00;;;;5058443;28;20436;-86
2021/12/18 00:17:13;;;;;;;4.30;3.80;;;-0.70;99.90;-1.30;98070.00;;;;5071911;28;20470;-85
2021/12/18 00:20:02;;;;;;;4.63;4.07;;;-0.20;99.90;-1.40;98076.00;;;;5084049;28;20441;-85
2021/12/18 00:22:50;;;;;;;4.53;3.67;;;-0.80;99.90;-1.40;98077.00;;;;5081434;28;20414;-85
2021/12/18 00:25:39;;;;;;;5.23;3.87;;;-0.80;99.90;-1.30;98087.00;;;;5063226;28;20441;-86
2021/12/18 00:28:28;;;;;;;5.03;3.73;;;-0.80;99.90;-1.70;98078.00;;;;5063638;28;20431;-85
2021/12/18 00:31:17;;;;;;;8.57;4.63;;;-0.90;99.90;-1.70;98087.00;;;;5071577;28;20767;-85
2021/12/18 00:34:07;;;;;;;3.80;3.40;;;-1.00;99.90;-1.70;98079.00;;;;5068054;28;20430;-85
2021/12/18 00:36:56;;;;;;;6.40;4.03;;;-1.00;99.90;-1.80;98098.00;;;;5078832;28;20473;-85
2021/12/18 00:39:54;;;;;;;5.17;3.70;;;-1.10;99.90;-1.70;98102.00;;;;5076410;28;20450;-85
2021/12/18 00:42:47;;;;;;;5.17;3.70;;;-1.20;99.90;-1.80;98105.00;;;;5076113;28;20423;-85
2021/12/18 00:45:36;;;;;;;5.93;3.90;;;-1.20;99.90;-1.90;98107.00;;;;5076604;28;20435;-85
2021/12/18 00:48:26;;;;;;;8.43;3.67;;;-1.20;99.90;-1.80;98118.00;;;;5073947;28;20439;-85
2021/12/18 00:51:16;;;;;;;4.33;3.33;;;-1.20;99.90;-1.60;98125.00;;;;5062242;28;20443;-85
2021/12/18 00:54:05;;;;;;;6.63;3.70;;;-1.20;99.90;-1.80;98142.00;;;;5081172;28;20430;-85
2021/12/18 00:56:54;;;;;;;4.13;3.73;;;-1.20;99.90;-1.90;98142.00;;;;5061435;28;20459;-85
2021/12/18 00:59:42;;;;;;;4.27;3.83;;;-1.20;99.90;-2.20;98135.00;;;;5059346;28;20447;-84
2021/12/18 01:02:31;;;;;;;4.23;3.47;;;-1.30;99.90;-2.00;98155.00;;;;5059769;28;20438;-85
2021/12/18 01:05:20;;;;;;;3.90;2.77;;;-1.40;99.90;-2.00;98153.00;;;;5083425;28;20433;-85
2021/12/18 01:08:11;;;;;;;5.13;3.50;;;-1.40;99.90;-2.00;98161.00;;;;5091300;28;20434;-85
2021/12/18 01:11:21;;;;;;;3.47;3.17;;;-0.60;99.90;-2.10;98160.00;;;;5088367;28;20448;-83
2021/12/18 01:14:26;;;;;;;6.70;3.97;;;-1.40;99.90;-1.90;98150.00;;;;5089646;28;20434;-84
2021/12/18 01:23:30;;;;;;;5.07;4.27;;;-1.40;99.90;-2.10;98156.00;;;;5067329;28;20424;-85
2021/12/18 01:26:19;;;;;;;3.53;3.23;;;-1.40;99.90;-2.00;98160.00;;;;5058041;28;20435;-85
2021/12/18 01:29:08;;;;;;;4.23;2.90;;;-1.40;99.90;-1.90;98166.00;;;;5068468;28;20419;-84
2021/12/18 01:31:58;;;;;;;6.73;3.40;;;-1.40;99.90;-2.00;98160.00;;;;5059966;28;20436;-85
2021/12/18 01:34:48;;;;;;;3.27;3.00;;;-1.40;99.90;-2.10;98154.00;;;;5057600;28;20416;-85
2021/12/18 01:37:39;;;;;;;3.40;2.87;;;-1.50;99.90;-2.10;98157.00;;;;5060030;28;20475;-85
2021/12/18 01:40:30;;;;;;;4.53;3.23;;;-0.80;99.90;-2.00;98149.00;;;;5057517;28;20444;-85
2021/12/18 01:46:39;;;;;;;4.37;3.23;;;-1.50;99.90;-2.10;98150.00;;;;5075213;28;20438;-84
2021/12/18 01:52:35;;;;;;;4.23;2.63;;;-1.40;99.90;-2.10;98156.00;;;;5076657;28;20433;-84
2021/12/18 01:55:31;;;;;;;5.20;3.00;;;-1.50;99.90;-2.30;98166.00;;;;5077138;28;20430;-84
2021/12/18 01:58:23;;;;;;;5.83;3.67;;;-1.50;99.90;-2.20;98153.00;;;;5076789;28;20474;-84
2021/12/18 02:01:13;;;;;;;3.90;3.03;;;-1.60;99.90;-2.10;98156.00;;;;5075195;28;20443;-84
2021/12/18 02:04:02;;;;;;;4.13;2.53;;;-1.60;99.90;-2.40;98147.00;;;;5078039;28;20678;-84
2021/12/18 02:06:51;;;;;;;2.80;2.60;;;-1.60;99.90;-2.50;98156.00;;;;5064851;28;20435;-84
2021/12/18 02:09:57;;;;;;;4.40;2.57;;;-1.70;99.90;-2.40;98148.00;;;;5074574;28;20959;-85
2021/12/18 02:12:55;;;;;;;3.17;2.83;;;-1.70;99.90;-2.20;98136.00;;;;5058040;28;20442;-85
2021/12/18 02:22:00;;;;;;;6.80;3.07;;;-1.50;99.90;-2.00;98133.00;;;;5073278;28;20426;-84
2021/12/18 02:24:49;;;;;;;4.67;2.93;;;-1.40;99.90;-2.30;98149.00;;;;5072586;28;20431;-83
2021/12/18 02:27:38;;;;;;;4.77;3.67;;;-1.50;99.90;-2.20;98154.00;;;;5079877;28;20804;-85
2021/12/18 02:30:28;;;;;;;3.93;3.20;;;-1.60;99.90;-2.30;98148.00;;;;5074793;28;20486;-85
2021/12/18 02:33:17;;;;;;;3.67;2.63;;;-1.60;99.90;-2.40;98161.00;;;;5074004;28;20811;-84
2021/12/18 02:36:09;;;;;;;4.00;2.80;;;-1.70;99.90;-2.30;98150.00;;;;5069782;28;20432;-85
2021/12/18 02:42:11;;;;;;;3.47;3.17;;;-1.80;99.90;-2.70;98149.00;;;;5068433;28;20431;-84
2021/12/18 02:44:59;;;;;;;5.10;3.33;;;-1.90;99.90;-2.60;98143.00;;;;5062315;28;20442;-84
2021/12/18 02:47:49;;;;;;;4.80;3.20;;;-1.90;99.90;-2.60;98161.00;;;;5082680;28;20437;-85
2021/12/18 02:50:40;;;;;;;7.07;3.27;;;-2.00;99.90;-2.70;98160.00;;;;5075181;28;20453;-84
2021/12/18 02:53:28;;;;;;;3.43;2.33;;;-2.00;99.90;-2.90;98155.00;;;;5057159;28;20427;-84
2021/12/18 02:56:23;;;;;;;2.83;2.43;;;-2.10;99.90;-2.70;98158.00;;;;5058177;28;20424;-85
2021/12/18 02:59:12;;;;;;;3.10;2.37;;;-2.10;99.90;-2.60;98153.00;;;;5056971;28;20428;-84
2021/12/18 03:02:03;;;;;;;3.63;2.43;;;-2.10;99.90;-2.50;98161.00;;;;5058238;28;20424;-85
2021/12/18 03:04:56;;;;;;;3.53;2.57;;;-2.00;99.90;-2.80;98150.00;;;;5055087;28;20446;-84
2021/12/18 03:07:46;;;;;;;2.97;2.47;;;-2.10;99.90;-2.90;98145.00;;;;5056874;28;20427;-85
2021/12/18 03:23:35;;;;;;;4.53;2.97;;;-2.00;99.90;-2.70;98181.00;;;;5039216;28;20445;-84
2021/12/18 03:26:24;;;;;;;2.70;2.50;;;-2.00;99.90;-3.30;98178.00;;;;5070432;28;20441;-84
2021/12/18 03:29:14;;;;;;;3.73;2.37;;;-2.10;99.90;-3.20;98192.00;;;;5065898;28;20422;-85
2021/12/18 03:32:04;;;;;;;3.67;2.83;;;-2.20;99.90;-2.90;98187.00;;;;5076411;28;20438;-84
2021/12/18 03:34:53;;;;;;;2.20;2.03;;;-2.20;99.90;-2.60;98179.00;;;;5074819;28;20446;-84
2021/12/18 03:37:43;;;;;;;3.30;2.80;;;-2.20;99.90;-2.50;98177.00;;;;5075268;28;20480;-85
2021/12/18 03:40:32;;;;;;;3.70;2.43;;;-2.10;99.90;-2.80;98161.00;;;;5073368;28;21087;-84
2021/12/18 03:43:20;;;;;;;4.17;2.80;;;-2.10;99.90;-2.70;98155.00;;;;5070632;28;20439;-85
2021/12/18 03:46:11;;;;;;;3.07;2.77;;;-0.30;99.90;-2.60;98165.00;;;;5074010;28;20460;-84
2021/12/18 03:48:59;;;;;;;3.37;2.07;;;-2.10;99.90;-3.00;98157.00;;;;5070794;28;20806;-85
2021/12/18 03:51:48;;;;;;;2.40;2.10;;;-2.10;99.90;-2.80;98144.00;;;;5074012;28;20429;-84
2021/12/18 03:54:37;;;;;;;3.27;2.30;;;-2.10;99.90;-2.30;98157.00;;;;5082701;28;20853;-85
2021/12/18 03:57:26;;;;;;;2.70;2.47;;;-2.00;99.90;-2.40;98170.00;;;;5077023;28;20474;-85
2021/12/18 04:00:17;;;;;;;3.80;2.70;;;-1.90;99.90;-2.60;98167.00;;;;5075747;28;20446;-84
2021/12/18 04:03:08;;;;;;;2.90;2.03;;;-1.90;99.90;-2.60;98175.00;;;;5076452;28;20446;-85
2021/12/18 04:05:57;;;;;;;2.93;2.63;;;-1.90;99.90;-2.60;98179.00;;;;5074995;28;20434;-84
2021/12/18 04:08:46;;;;;;;5.23;2.77;;;-0.50;99.90;-2.70;98178.00;;;;5074953;28;20418;-85
2021/12/18 04:11:35;;;;;;;4.67;2.83;;;-2.00;99.90;-2.90;98176.00;;;;5075538;28;20447;-84
2021/12/18 04:14:24;;;;;;;2.83;2.20;;;-1.90;99.90;-2.80;98179.00;;;;5056563;28;20435;-85
2021/12/18 04:17:13;;;;;;;3.23;2.93;;;-2.10;99.90;-2.90;98185.00;;;;5073978;28;20437;-85
2021/12/18 04:20:04;;;;;;;2.90;2.63;;;-2.20;99.90;-2.90;98182.00;;;;5075170;28;20846;-85
2021/12/18 04:22:53;;;;;;;4.30;2.77;;;-1.60;99.90;-2.90;98177.00;;;;5074510;28;20433;-85
2021/12/18 04:25:42;;;;;;;2.63;2.37;;;-2.30;99.90;-2.90;98177.00;;;;5064756;28;20427;-85
2021/12/18 04:28:31;;;;;;;5.73;3.27;;;-2.30;99.90;-2.90;98183.00;;;;5058417;28;20438;-84
2021/12/18 04:31:20;;;;;;;4.40;3.57;;;-2.00;99.90;-2.90;98185.00;;;;5055008;28;20846;-83
2021/12/18 04:34:09;;;;;;;2.70;2.43;;;-2.30;99.90;-2.90;98187.00;;;;5064157;28;20422;-84
2021/12/18 04:36:59;;;;;;;2.60;2.27;;;-2.30;99.90;-3.00;98181.00;;;;5074618;28;20965;-84
2021/12/18 04:39:48;;;;;;;3.07;2.77;;;-2.30;99.90;-3.00;98170.00;;;;5073510;28;20711;-84
2021/12/18 04:42:37;;;;;;;6.60;2.90;;;-2.30;99.90;-3.10;98182.00;;;;5064564;28;20426;-84
2021/12/18 04:45:26;;;;;;;3.53;2.37;;;-2.20;99.90;-3.20;98183.00;;;;5062317;28;20448;-83
2021/12/18 04:48:15;;;;;;;3.57;2.37;;;-2.50;99.90;-3.40;98183.00;;;;5085935;28;20427;-84
2021/12/18 04:51:04;;;;;;;3.13;2.83;;;-2.50;99.90;-3.60;98176.00;;;;5069883;28;20446;-84
2021/12/18 04:53:54;;;;;;;6.90;3.90;;;-2.60;99.90;-3.40;98191.00;;;;5066941;28;20423;-83
2021/12/18 04:56:43;;;;;;;6.20;3.70;;;-1.90;99.90;-3.50;98185.00;;;;5056393;28;20439;-84
2021/12/18 04:59:32;;;;;;;5.10;4.60;;;-2.60;99.90;-3.40;98187.00;;;;5058628;28;20475;-84
2021/12/18 05:02:25;;;;;;;3.80;3.33;;;-2.10;99.90;-3.40;98174.00;;;;5069355;28;20426;-83
2021/12/18 05:05:15;;;;;;;4.60;3.83;;;-2.60;99.90;-3.70;98176.00;;;;5076257;28;20430;-84
2021/12/18 05:08:06;;;;;;;2.27;2.07;;;-2.80;99.90;-4.20;98189.00;;;;5065760;28;20442;-84
2021/12/18 05:10:56;;;;;;;2.33;2.20;;;-2.90;99.90;-3.80;98190.00;;;;5074598;28;20447;-83
2021/12/18 05:13:45;;;;;;;6.40;3.93;;;-2.40;99.90;-3.50;98178.00;;;;5075111;28;20430;-83
2021/12/18 05:16:34;;;;;;;6.47;5.17;;;-2.40;99.90;-3.20;98171.00;;;;5074414;28;20422;-83
2021/12/18 05:19:23;;;;;;;6.43;3.70;;;-2.70;99.90;-3.40;98170.00;;;;5074955;28;20850;-84
2021/12/18 05:22:12;;;;;;;4.47;3.23;;;-2.70;99.90;-3.60;98173.00;;;;5062282;28;20419;-84
2021/12/18 05:25:01;;;;;;;3.07;2.77;;;-2.50;99.90;-3.50;98187.00;;;;5066082;28;20428;-84
2021/12/18 05:27:51;;;;;;;9.13;3.30;;;-2.70;99.90;-3.20;98182.00;;;;5056742;28;20415;-83
2021/12/18 05:30:40;;;;;;;4.07;2.80;;;-2.70;99.90;-3.20;98184.00;;;;5061450;28;20447;-84
2021/12/18 05:33:29;;;;;;;3.63;3.20;;;-2.60;99.90;-3.10;98193.00;;;;5074174;28;20435;-85
2021/12/18 05:36:32;;;;;;;3.30;2.80;;;-2.60;99.90;-3.10;98194.00;;;;5072879;28;20943;-83
2021/12/18 05:39:21;;;;;;;3.87;2.50;;;-2.50;99.90;-3.20;98195.00;;;;5063806;28;20458;-84
2021/12/18 05:42:10;;;;;;;3.10;2.80;;;-2.60;99.90;-3.00;98203.00;;;;5076132;28;20426;-84
2021/12/18 05:45:07;;;;;;;5.73;2.50;;;-2.60;99.90;-3.60;98205.00;;;;5063096;28;20434;-83
2021/12/18 05:47:56;;;;;;;4.37;2.53;;;-2.60;99.90;-3.50;98202.00;;;;5069126;28;20419;-84
2021/12/18 05:50:46;;;;;;;4.47;2.63;;;-2.10;99.90;-3.70;98199.00;;;;5072739;28;21007;-85
2021/12/18 05:53:35;;;;;;;3.07;2.50;;;-2.80;99.90;-3.70;98207.00;;;;5072551;28;20433;-84
2021/12/18 05:56:24;;;;;;;2.83;2.50;;;-2.70;99.90;-3.50;98199.00;;;;5072273;28;20430;-85
2021/12/18 05:59:12;;;;;;;2.83;2.60;;;-2.30;99.90;-3.60;98208.00;;;;5072040;28;20473;-83
2021/12/18 06:02:03;;;;;;;4.70;2.50;;;-2.90;99.90;-3.80;98205.00;;;;5073225;28;20419;-85
2021/12/18 06:04:52;;;;;;;3.23;2.93;;;-3.00;99.90;-3.70;98223.00;;;;5073725;28;20434;-83
2021/12/18 06:07:53;;;;;;;7.00;4.07;;;-2.60;99.90;-3.60;98224.00;;;;5072884;28;20427;-85
2021/12/18 06:10:42;;;;;;;2.87;2.63;;;-3.00;99.90;-3.80;98213.00;;;;5069172;28;20460;-83
2021/12/18 06:13:31;;;;;;;2.90;2.70;;;-2.70;99.90;-3.80;98220.00;;;;5070224;28;20427;-83
2021/12/18 06:16:21;;;;;;;5.00;3.23;;;-3.00;99.90;-4.00;98226.00;;;;5069221;28;20430;-84
2021/12/18 06:19:12;;;;;;;3.97;2.80;;;-3.10;99.90;-3.80;98225.00;;;;5078357;28;20462;-84
2021/12/18 06:22:00;;;;;;;3.40;2.87;;;-2.20;99.90;-3.80;98220.00;;;;5078476;28;20419;-85
2021/12/18 06:24:49;;;;;;;2.03;1.83;;;-3.10;99.90;-4.40;98214.00;;;;5072116;28;20470;-84
2021/12/18 06:27:38;;;;;;;3.30;2.77;;;-3.20;99.90;-3.90;98230.00;;;;5064540;28;20422;-83
2021/12/18 06:30:27;;;;;;;2.30;2.10;;;-3.20;99.90;-3.70;98220.00;;;;5073635;28;20439;-82
2021/12/18 06:33:16;;;;;;;3.00;2.47;;;-3.10;99.90;-3.20;98225.00;;;;5069793;28;20437;-82
2021/12/18 06:36:06;;;;;;;2.67;2.10;;;-2.20;99.90;-3.20;98229.00;;;;5073907;28;20423;-83
2021/12/18 06:38:55;;;;;;;2.87;2.57;;;-2.60;99.90;-3.10;98233.00;;;;5084103;28;20492;-83
2021/12/18 06:41:44;;;;;;;6.60;2.53;;;-2.50;99.90;-3.00;98240.00;;;;5074189;28;20632;-84
2021/12/18 06:44:33;;;;;;;12.63;7.27;;;-2.50;99.90;-3.20;98223.00;;;;5057777;28;20531;-82
2021/12/18 06:47:21;;;;;;;4.20;3.50;;;-2.40;99.90;-3.00;98241.00;;;;5082240;28;20421;-83
2021/12/18 06:50:11;;;;;;;3.93;3.10;;;-2.40;99.90;-2.70;98231.00;;;;5061189;28;20443;-84
2021/12/18 06:53:01;;;;;;;4.87;3.80;;;-2.30;99.90;-2.70;98226.00;;;;5069274;28;20473;-82
2021/12/18 06:55:50;;;;;;;11.53;10.37;;;-2.10;99.90;-2.80;98227.00;;;;5061091;28;20513;-82
2021/12/18 06:58:42;;;;;;;6.33;5.57;;;-2.10;99.90;-2.90;98223.00;;;;5072107;28;20439;-84
2021/12/18 07:01:31;;;;;;;4.13;3.30;;;-2.10;99.90;-2.90;98225.00;;;;5060171;28;20981;-85
2021/12/18 07:04:20;;;;;;;4.30;2.80;;;-2.20;99.90;-2.60;98223.00;;;;5067690;28;20419;-84
2021/12/18 07:07:09;;;;;;;9.60;3.70;;;-2.10;99.90;-2.50;98209.00;;;;5062238;28;20422;-84
2021/12/18 07:09:59;;;;;;;4.17;3.30;;;-2.10;99.90;-2.30;98218.00;;;;5061485;28;20447;-84
2021/12/18 07:12:48;;;;;;;2.73;2.43;;;-1.90;99.90;-2.40;98212.00;;;;5070393;28;20427;-84
2021/12/18 07:15:37;;;;;;;3.70;3.33;;;-1.90;99.90;-2.20;98219.00;;;;5068724;28;20438;-84
2021/12/18 07:18:25;;;;;;;5.93;3.90;;;-1.90;99.90;-2.20;98228.00;;;;5075277;28;20800;-84
2021/12/18 07:21:14;;;;;;;3.73;3.43;;;-1.80;99.90;-2.10;98231.00;;;;5065628;28;20822;-84
2021/12/18 07:24:03;;;;;;;4.90;3.00;;;-1.70;99.90;-2.00;98232.00;;;;5062573;28;20434;-83
2021/12/18 07:26:54;;;;;;;6.43;3.30;;;-1.70;99.90;-2.10;98231.00;;;;5067646;28;20427;-84
2021/12/18 07:29:42;;;;;;;5.00;3.10;;;-1.60;99.90;-2.20;98220.00;;;;5062216;28;20450;-84
2021/12/18 07:32:31;;;;;;;7.73;3.53;;;-1.60;99.90;-2.10;98232.00;;;;5066424;28;20418;-84
2021/12/18 07:35:20;;;;;;;3.37;3.13;;;-1.60;99.90;-2.00;98240.00;;;;5065762;28;20430;-84
2021/12/18 07:38:10;;;;;;;3.17;2.60;;;-1.60;99.90;-2.20;98225.00;;;;5065990;28;20435;-85
2021/12/18 07:40:59;;;;;;;6.73;3.77;;;-1.60;99.90;-2.40;98216.00;;;;5067157;28;20469;-84
2021/12/18 07:43:49;;;;;;;4.63;3.10;;;-1.60;99.90;-2.50;98218.00;;;;5080007;28;20433;-84
2021/12/18 07:46:39;;;;;;;4.20;2.73;;;-1.70;99.90;-2.20;98207.00;;;;5066592;28;20847;-84
2021/12/18 07:49:28;;;;;;;5.70;3.30;;;-1.60;99.90;-1.80;98218.00;;;;5060304;28;20994;-83
2021/12/18 07:52:17;;;;;;;5.90;3.30;;;-1.60;99.90;-1.50;98221.00;;;;5066524;28;20814;-84
2021/12/18 07:55:08;;;;;;;8.60;3.67;;;-1.40;99.90;-1.20;98223.00;;;;5073167;28;20433;-84
2021/12/18 07:57:57;;;;;;;3.87;3.17;;;-2.70;99.90;-0.70;98223.00;;;;5076307;28;20807;-85
2021/12/18 08:00:48;;;;;;;6.30;3.40;;;-1.00;99.90;-0.80;98240.00;;;;5073229;28;20492;-83
2021/12/18 08:03:37;;;;;;;4.30;3.43;;;-0.80;99.90;-0.80;98245.00;;;;5077655;28;20427;-83
2021/12/18 08:06:25;;;;;;;6.67;4.70;;;-0.60;99.90;-0.80;98222.00;;;;5062001;28;22072;-86
2021/12/18 08:09:16;;;;;;;5.80;4.33;;;-0.50;99.90;-0.60;98233.00;;;;5056827;28;20438;-84
2021/12/18 08:12:07;;;;;;;5.97;5.23;;;-0.40;99.90;-0.50;98225.00;;;;5051871;28;20426;-84
2021/12/18 08:14:56;;;;;;;3.80;3.47;;;-0.40;99.90;-0.90;98226.00;;;;5053845;28;20465;-85
2021/12/18 08:17:46;;;;;;;5.10;4.50;;;-0.30;99.90;-0.70;98224.00;;;;5054181;28;20426;-86
2021/12/18 08:20:36;;;;;;;7.30;4.40;;;-0.30;99.90;-0.50;98224.00;;;;5046964;28;21070;-84
2021/12/18 08:23:24;;;;;;;7.30;4.90;;;-0.20;99.90;-0.10;98216.00;;;;5053857;28;20955;-85
2021/12/18 08:26:13;;;;;;;12.83;5.97;;;0.00;99.90;0.00;98219.00;;;;5056212;28;20449;-84
2021/12/18 08:29:02;;;;;;;19.90;9.30;;;-0.10;99.90;0.00;98213.00;;;;5054650;28;20439;-84
2021/12/18 08:31:52;;;;;;;19.73;8.43;;;0.10;99.90;0.00;98215.00;;;;5055263;28;20445;-85
2021/12/18 08:34:42;;;;;;;7.77;5.80;;;0.20;99.90;0.10;98216.00;;;;5055505;28;20442;-84
2021/12/18 08:37:31;;;;;;;5.17;4.30;;;0.30;99.90;0.30;98223.00;;;;5052701;28;20477;-85
2021/12/18 08:40:21;;;;;;;7.10;3.83;;;0.40;99.90;0.40;98221.00;;;;5051191;28;20824;-83
2021/12/18 08:43:10;;;;;;;6.17;4.50;;;0.60;99.90;0.90;98217.00;;;;5053936;28;20439;-84
2021/12/18 08:45:59;;;;;;;4.97;3.40;;;0.70;99.90;1.40;98211.00;;;;5053335;28;20522;-84
2021/12/18 08:48:48;;;;;;;4.17;3.23;;;0.90;99.90;1.90;98225.00;;;;5053270;28;21040;-84
2021/12/18 08:51:39;;;;;;;3.13;2.50;;;1.20;99.90;2.40;98233.00;;;;5051679;28;20912;-86
2021/12/18 08:54:28;;;;;;;3.10;2.57;;;1.60;99.90;2.70;98240.00;;;;5064122;28;20948;-84
2021/12/18 08:57:28;;;;;;;2.53;2.33;;;2.00;99.90;3.30;98247.00;;;;5054984;28;21049;-85
2021/12/18 09:00:20;;;;;;;4.77;2.73;;;2.50;99.90;3.60;98263.00;;;;5053205;28;21042;-85
2021/12/18 09:03:09;;;;;;;3.37;2.53;;;2.80;99.90;3.90;98253.00;;;;5051959;28;20438;-85
2021/12/18 09:05:58;;;;;;;3.27;2.07;;;3.20;99.90;4.30;98252.00;;;;5049327;28;20854;-87
2021/12/18 09:08:49;;;;;;;2.27;1.80;;;3.60;99.90;4.70;98255.00;;;;5052778;28;20450;-85
2021/12/18 09:11:38;;;;;;;2.13;1.93;;;5.20;99.90;4.80;98262.00;;;;5053747;28;21658;-86
2021/12/18 09:14:26;;;;;;;4.43;2.07;;;4.20;99.90;5.10;98269.00;;;;5054440;28;20276;-86
2021/12/18 09:17:15;;;;;;;2.53;1.77;;;4.50;99.90;5.30;98261.00;;;;5053130;28;20408;-86
2021/12/18 09:20:06;;;;;;;1.67;1.47;;;4.80;99.80;5.40;98254.00;;;;5058831;28;20242;-85
2021/12/18 09:22:58;;;;;;;2.67;1.67;;;5.00;95.80;5.70;98247.00;;;;5059687;28;20212;-83
2021/12/18 09:25:48;;;;;;;1.47;1.27;;;5.20;92.90;5.70;98252.00;;;;5073345;28;20201;-83
2021/12/18 09:28:37;;;;;;;2.07;1.70;;;5.40;91.60;5.90;98251.00;;;;5059924;28;20240;-85
2021/12/18 09:31:27;;;;;;;3.90;2.20;;;5.50;92.20;6.10;98255.00;;;;5055458;28;20247;-86
2021/12/18 09:34:16;;;;;;;2.97;1.90;;;5.70;91.30;6.30;98255.00;;;;5055712;28;20215;-84
2021/12/18 09:37:05;;;;;;;1.97;1.77;;;5.80;91.30;6.50;98245.00;;;;5056101;28;20208;-86
2021/12/18 09:39:54;;;;;;;5.00;1.90;;;6.00;87.30;6.70;98247.00;;;;5054254;28;20398;-85
2021/12/18 09:42:44;;;;;;;3.03;1.43;;;6.10;88.30;6.90;98254.00;;;;5049894;28;20685;-84
2021/12/18 09:45:34;;;;;;;1.47;1.30;;;6.30;85.10;6.90;98253.00;;;;5055842;28;20224;-83
2021/12/18 09:48:24;;;;;;;1.77;1.57;;;6.50;83.40;7.10;98243.00;;;;5044209;28;20211;-83
2021/12/18 09:51:22;;;;;;;1.60;1.50;;;6.60;81.00;7.10;98234.00;;;;5042531;28;20229;-84
2021/12/18 09:54:11;;;;;;;4.07;1.53;;;6.70;78.80;7.20;98236.00;;;;5043296;28;20677;-83
2021/12/18 09:57:00;;;;;;;1.63;1.40;;;6.90;78.10;7.40;98235.00;;;;5053517;28;20206;-83
2021/12/18 09:59:51;;;;;;;2.73;1.37;;;7.00;78.30;7.50;98239.00;;;;5054829;28;20228;-84
2021/12/18 10:02:40;;;;;;;1.97;1.50;;;7.10;73.60;7.50;98233.00;;;;5053700;28;20754;-83
2021/12/18 10:05:34;;;;;;;1.80;1.33;;;7.20;73.80;7.70;98228.00;;;;5054106;28;20276;-84
2021/12/18 10:08:23;;;;;;;1.50;1.03;;;7.30;72.00;7.90;98228.00;;;;5053686;28;20209;-83
2021/12/18 10:11:11;;;;;;;1.80;1.20;;;7.40;72.80;7.90;98234.00;;;;5052271;28;20627;-86
2021/12/18 10:14:03;;;;;;;3.87;1.60;;;7.50;70.40;8.10;98221.00;;;;5049999;28;20208;-84
2021/12/18 10:16:54;;;;;;;3.13;1.40;;;7.60;70.00;8.50;98218.00;;;;5052570;28;20204;-85
2021/12/18 10:19:43;;;;;;;4.93;1.87;;;7.80;69.90;9.10;98219.00;;;;5052494;28;20215;-83
2021/12/18 10:22:35;;;;;;;1.50;1.40;;;8.30;71.40;9.70;98208.00;;;;5057486;28;20213;-82
2021/12/18 10:25:26;;;;;;;1.40;1.30;;;9.40;67.70;10.30;98211.00;;;;5052616;28;20997;-84
2021/12/18 10:28:19;;;;;;;2.07;1.50;;;10.30;66.40;10.30;98200.00;;;;5049528;28;20582;-84
2021/12/18 10:31:07;;;;;;;3.13;1.57;;;10.90;59.50;10.70;98211.00;;;;5050367;28;20224;-85
2021/12/18 10:34:15;;;;;;;2.57;1.67;;;11.20;58.40;11.10;98196.00;;;;5049707;28;20514;-84
2021/12/18 10:37:19;;;;;;;3.60;1.70;;;11.30;59.40;11.40;98206.00;;;;5049712;28;20208;-84
2021/12/18 10:40:13;;;;;;;4.97;1.43;;;11.40;58.50;11.60;98215.00;;;;5049924;28;20313;-84
2021/12/18 10:43:01;;;;;;;4.13;1.30;;;12.90;58.10;11.90;98214.00;;;;5053202;28;20231;-85
2021/12/18 10:45:50;;;;;;;1.40;1.20;;;12.00;56.60;12.00;98203.00;;;;5053370;28;20717;-86
2021/12/18 10:48:39;;;;;;;4.97;1.20;;;12.20;54.90;11.90;98208.00;;;;5048743;28;20254;-83
2021/12/18 10:51:31;;;;;;;4.13;1.50;;;12.20;55.20;12.40;98209.00;;;;5050232;28;20433;-84
2021/12/18 10:54:23;;;;;;;1.20;1.10;;;12.60;55.00;12.40;98198.00;;;;5049438;28;20688;-83
2021/12/18 10:57:21;;;;;;;5.27;1.43;;;12.90;53.20;12.40;98197.00;;;;5052157;28;20231;-85
2021/12/18 11:00:13;;;;;;;5.77;1.43;;;13.00;53.40;12.70;98195.00;;;;5050418;28;20233;-83
2021/12/18 11:03:20;;;;;;;2.73;1.37;;;13.10;51.20;13.50;98193.00;;;;5050882;28;20208;-84
2021/12/18 11:06:17;;;;;;;6.43;1.77;;;13.40;53.00;13.40;98195.00;;;;5050932;28;20291;-84
2021/12/18 11:09:13;;;;;;;3.13;1.10;;;13.70;51.60;13.80;98197.00;;;;5050974;28;20212;-84
2021/12/18 11:15:10;;;;;;;;;;;14.30;49.20;14.60;98187.00;;;;5050791;28;20057;-84
2021/12/18 11:17:59;;;;;;;2.90;1.30;;;14.80;49.10;15.20;98191.00;;;;5047092;28;20398;-85
2021/12/18 11:20:51;;;;;;;2.33;1.30;;;15.10;48.30;14.90;98170.00;;;;5046396;28;20411;-85
2021/12/18 11:23:45;;;;;;;4.83;1.80;;;15.60;45.30;15.10;98170.00;;;;5046512;28;20208;-84
2021/12/18 11:26:41;;;;;;;2.90;1.17;;;15.40;46.70;13.60;98171.00;;;;5049280;28;20211;-84
2021/12/18 11:29:44;;;;;;;11.67;2.90;;;15.00;44.40;14.20;98172.00;;;;5047338;28;20208;-83
2021/12/18 11:32:37;;;;;;;6.30;1.40;;;14.80;45.50;14.30;98160.00;;;;5049495;28;20617;-82
2021/12/18 11:35:28;;;;;;;0.90;0.90;;;14.80;45.40;14.50;98184.00;;;;5062972;28;20200;-86
2021/12/18 11:38:18;;;;;;;2.13;1.17;;;14.90;46.20;14.40;98181.00;;;;5066129;28;20200;-86
2021/12/18 11:41:08;;;;;;;0.77;0.77;;;14.80;46.00;13.40;98167.00;;;;5051185;28;20278;-84
2021/12/18 11:43:58;;;;;;;2.00;1.20;;;14.80;43.70;13.40;98173.00;;;;5050560;28;20577;-84
2021/12/18 11:46:47;;;;;;;4.87;1.47;;;14.50;44.40;13.20;98177.00;;;;5049270;28;20215;-85
2021/12/18 11:49:56;;;;;;;2.63;1.03;;;14.10;45.00;12.90;98179.00;;;;5050873;28;20697;-84
2021/12/18 11:53:02;;;;;;;1.10;0.90;;;13.60;45.80;12.80;98171.00;;;;5047934;28;20232;-85
2021/12/18 11:56:00;;;;;;;4.90;1.37;;;13.20;46.60;12.40;98159.00;;;;5053411;28;20200;-84
2021/12/18 11:58:51;;;;;;;2.10;0.90;;;12.90;47.00;12.20;98149.00;;;;5047134;28;20214;-83
2021/12/18 12:01:46;;;;;;;1.57;1.13;;;12.60;47.30;12.10;98145.00;;;;5047673;28;20234;-85
2021/12/18 12:05:01;;;;;;;4.93;1.37;;;12.40;48.40;12.40;98147.00;;;;5047058;28;20196;-84
2021/12/18 12:07:51;;;;;;;3.63;1.20;;;12.40;49.40;12.30;98151.00;;;;5050622;28;20212;-84
2021/12/18 12:11:15;;;;;;;6.87;1.60;;;12.40;49.50;12.30;98155.00;;;;5050493;28;20228;-84
2021/12/18 12:14:11;;;;;;;6.63;1.50;;;12.40;49.90;12.10;98151.00;;;;5073190;28;20351;-83
2021/12/18 12:17:24;;;;;;;6.70;1.53;;;12.30;50.30;11.70;98142.00;;;;5049137;28;20219;-84
2021/12/18 12:20:39;;;;;;;4.50;1.43;;;12.10;50.50;11.10;98138.00;;;;5046395;28;21274;-85
2021/12/18 12:23:28;;;;;;;6.30;3.33;;;11.70;50.60;10.80;98139.00;;;;5052358;28;20724;-83
2021/12/18 12:26:24;;;;;;;2.27;1.63;;;11.30;51.20;10.80;98121.00;;;;5051001;28;20208;-85
2021/12/18 12:29:15;;;;;;;3.07;1.37;;;11.10;52.20;11.00;98139.00;;;;5048568;28;20200;-84
2021/12/18 12:32:12;;;;;;;1.97;0.93;;;11.10;53.10;11.40;98116.00;;;;5049366;28;20916;-84
2021/12/18 12:35:07;;;;;;;2.07;0.87;;;11.10;52.70;11.60;98123.00;;;;5050249;28;20687;-83
2021/12/18 12:37:57;;;;;;;20.10;4.17;;;11.30;52.10;11.50;98132.00;;;;5064201;28;20862;-84
2021/12/18 12:40:46;;;;;;;2.10;0.90;;;11.40;53.30;12.10;98113.00;;;;5052931;28;20789;-85
2021/12/18 12:43:41;;;;;;;2.63;0.90;;;11.60;53.50;13.40;98081.00;;;;5046626;28;20201;-85
2021/12/18 12:46:31;;;;;;;3.43;1.20;;;12.10;52.10;14.90;98091.00;;;;5052440;28;20200;-86
2021/12/18 12:49:22;;;;;;;8.47;1.90;;;13.20;51.90;16.20;98109.00;;;;5048847;28;21763;-86
2021/12/18 12:52:35;;;;;;;2.20;0.80;;;14.60;50.80;16.50;98097.00;;;;5053292;28;20700;-85
2021/12/18 12:55:26;;;;;;;3.33;1.27;;;15.60;48.00;15.60;98110.00;;;;5050811;28;20269;-86
2021/12/18 12:58:21;;;;;;;3.03;0.90;;;15.90;45.30;14.90;98106.00;;;;5051919;28;20209;-85
2021/12/18 13:01:10;;;;;;;17.30;3.20;;;15.70;44.50;15.90;98073.00;;;;5053459;28;20219;-84
2021/12/18 13:03:59;;;;;;;8.87;1.60;;;15.50;45.40;16.20;98089.00;;;;5052380;28;20210;-85
2021/12/18 13:06:47;;;;;;;7.53;1.10;;;15.80;46.30;15.90;98097.00;;;;5051206;28;20996;-86
2021/12/18 13:09:49;;;;;;;3.90;1.40;;;16.00;45.20;15.50;98095.00;;;;5053167;28;20197;-85
2021/12/18 13:12:52;;;;;;;2.40;1.20;;;15.90;44.60;14.60;98104.00;;;;5055204;28;20734;-86
2021/12/18 13:15:53;;;;;;;1.80;1.40;;;15.40;44.40;13.80;98086.00;;;;5052545;28;20206;-85
2021/12/18 13:18:45;;;;;;;2.33;1.57;;;14.80;45.00;13.40;98084.00;;;;5055967;28;20204;-85
2021/12/18 13:21:36;;;;;;;2.70;1.40;;;14.20;45.50;13.50;98083.00;;;;5054998;28;20225;-86